This is the latest recevied weather packets stored in our database for station/object EA5JZL-10. If no packets are shown the sender has not sent any weather packets the latest 10 day(s).
| Time | Temp. | Humidity | Pressure | Rain* | Wind** | Luminosity | Snow |
|---|---|---|---|---|---|---|---|
| 1777368071 | 21.11° C | 52% | 1015.1 hPa | - | - | - | - |
| 1777366271 | 22.78° C | 47% | 1015 hPa | - | - | - | - |
| 1777364470 | 22.78° C | 48% | 1015.2 hPa | - | - | - | - |
| 1777362670 | 23.33° C | 47% | 1015.1 hPa | - | - | - | - |
| 1777360870 | 23.33° C | 46% | 1015.6 hPa | - | - | - | - |
| 1777359070 | 22.78° C | 45% | 1015.3 hPa | - | - | - | - |
| 1777357270 | 23.33° C | 45% | 1015.2 hPa | - | - | - | - |
| 1777355470 | 22.78° C | 45% | 1015 hPa | - | - | - | - |
| 1777353669 | 23.33° C | 45% | 1014.8 hPa | - | - | - | - |
| 1777351869 | 23.33° C | 45% | 1014.8 hPa | - | - | - | - |
| 1777350069 | 23.33° C | 44% | 1014.6 hPa | - | - | - | - |
| 1777348269 | 23.33° C | 44% | 1014.8 hPa | - | - | - | - |
| 1777346469 | 23.89° C | 44% | 1015.2 hPa | - | - | - | - |
| 1777344669 | 23.89° C | 44% | 1015.2 hPa | - | - | - | - |
| 1777342868 | 23.89° C | 44% | 1015.5 hPa | - | - | - | - |
| 1777341068 | 23.89° C | 44% | 1015.8 hPa | - | - | - | - |
| 1777339268 | 21.67° C | 49% | 1016 hPa | - | - | - | - |
| 1777337468 | 22.22° C | 49% | 1016.4 hPa | - | - | - | - |
| 1777335668 | 22.22° C | 49% | 1016.7 hPa | - | - | - | - |
| 1777333868 | 22.22° C | 48% | 1016.8 hPa | - | - | - | - |
| 1777332067 | 22.22° C | 49% | 1017 hPa | - | - | - | - |
| 1777330267 | 22.22° C | 48% | 1017.2 hPa | - | - | - | - |
| 1777328467 | 22.22° C | 50% | 1017.1 hPa | - | - | - | - |
| 1777326667 | 22.22° C | 48% | 1017.1 hPa | - | - | - | - |
| 1777324867 | 22.22° C | 48% | 1017.2 hPa | - | - | - | - |
* Rain since midnight (hover to see other rain measurements)
** Current wind speed in m/s (hover to see current wind gust speed)